createdAt,value
2022-12-11T00:00:25.049Z,31.42
2022-12-11T00:02:52.310Z,25.42
2022-12-11T00:05:19.430Z,25.85
2022-12-11T00:07:46.642Z,31.77
2022-12-11T00:10:13.825Z,26.47
2022-12-11T00:12:40.876Z,24.60
2022-12-11T00:15:08.963Z,22.48
2022-12-11T00:17:36.498Z,23.92
2022-12-11T00:20:04.124Z,20.55
2022-12-11T00:22:31.437Z,20.53
2022-12-11T00:24:58.513Z,21.27
2022-12-11T00:27:25.625Z,22.55
2022-12-11T00:29:52.660Z,23.40
2022-12-11T00:32:19.784Z,21.10
2022-12-11T00:34:46.881Z,18.97
2022-12-11T00:37:14.109Z,20.90
2022-12-11T00:39:41.346Z,21.95
2022-12-11T00:42:08.760Z,23.25
2022-12-11T00:44:36.200Z,23.70
2022-12-11T00:47:03.878Z,23.07
2022-12-11T00:49:30.960Z,21.92
2022-12-11T00:51:58.034Z,19.65
2022-12-11T00:54:25.142Z,21.08
2022-12-11T00:56:52.209Z,24.33
2022-12-11T00:59:19.294Z,29.23
2022-12-11T01:01:46.575Z,26.83
2022-12-11T01:04:13.807Z,27.73
2022-12-11T01:06:41.230Z,25.48
2022-12-11T01:09:26.870Z,24.95
2022-12-11T01:11:54.164Z,23.47
2022-12-11T01:14:21.245Z,26.02
2022-12-11T01:16:48.310Z,25.50
2022-12-11T01:19:15.726Z,20.73
2022-12-11T01:21:42.971Z,19.92
2022-12-11T01:24:10.136Z,20.87
2022-12-11T01:26:37.358Z,22.55
2022-12-11T01:29:04.467Z,23.90
2022-12-11T01:31:31.702Z,22.42
2022-12-11T01:33:58.776Z,19.35
2022-12-11T01:36:26.203Z,21.07
2022-12-11T01:38:54.437Z,19.05
2022-12-11T01:41:22.033Z,22.00
2022-12-11T01:44:04.621Z,18.35
2022-12-11T01:46:36.565Z,17.55
2022-12-11T01:49:06.635Z,20.67
2022-12-11T01:51:37.368Z,21.70
2022-12-11T01:54:08.413Z,16.70
2022-12-11T01:56:36.526Z,20.83
2022-12-11T01:59:07.306Z,20.90
2022-12-11T02:01:37.718Z,19.50
2022-12-11T02:04:06.996Z,20.23
2022-12-11T02:06:43.374Z,20.17
2022-12-11T02:09:14.262Z,20.08
2022-12-11T02:11:53.477Z,18.88
2022-12-11T02:14:28.133Z,19.03
2022-12-11T02:17:14.840Z,20.90
2022-12-11T02:19:50.045Z,19.70
2022-12-11T02:22:35.885Z,20.00
2022-12-11T02:25:22.497Z,17.95
2022-12-11T02:28:11.347Z,19.47
2022-12-11T02:30:39.415Z,19.75
2022-12-11T02:33:07.510Z,19.48
2022-12-11T02:35:38.326Z,19.08
2022-12-11T02:38:14.215Z,21.38
2022-12-11T02:40:42.482Z,22.60
2022-12-11T02:43:11.721Z,18.58
2022-12-11T02:45:40.782Z,18.90
2022-12-11T02:48:09.978Z,20.17
2022-12-11T02:50:45.756Z,24.17
2022-12-11T02:53:13.829Z,16.83
2022-12-11T02:55:41.877Z,20.38
2022-12-11T02:58:18.774Z,23.10
2022-12-11T03:00:46.388Z,22.65
2022-12-11T03:03:14.211Z,20.73
2022-12-11T03:05:42.747Z,22.20
2022-12-11T03:08:10.292Z,24.20
2022-12-11T03:10:37.418Z,21.95
2022-12-11T03:13:04.715Z,26.45
2022-12-11T03:15:53.387Z,23.50
2022-12-11T03:18:30.637Z,24.30
2022-12-11T03:21:13.258Z,20.48
2022-12-11T03:23:46.287Z,23.95
2022-12-11T03:26:14.929Z,28.15
2022-12-11T03:28:55.017Z,22.73
2022-12-11T03:31:50.483Z,23.30
2022-12-11T03:34:25.939Z,22.38
2022-12-11T03:36:54.052Z,23.77
2022-12-11T03:39:33.217Z,25.25
2022-12-11T03:42:03.625Z,23.52
2022-12-11T03:44:32.458Z,22.73
2022-12-11T03:47:00.482Z,24.05
2022-12-11T03:49:29.904Z,25.00
2022-12-11T03:51:58.166Z,24.25
2022-12-11T03:54:26.103Z,25.58
2022-12-11T03:56:56.429Z,24.00
2022-12-11T03:59:23.676Z,20.45
2022-12-11T04:01:51.255Z,23.63
2022-12-11T04:04:18.415Z,24.83
2022-12-11T04:06:45.560Z,22.60
2022-12-11T04:09:12.865Z,21.37
2022-12-11T04:11:39.971Z,20.92
2022-12-11T04:14:30.301Z,28.13
2022-12-11T04:16:58.839Z,26.75
2022-12-11T04:19:44.779Z,22.15
2022-12-11T04:22:32.205Z,22.60
2022-12-11T04:25:00.101Z,21.58
2022-12-11T04:27:45.872Z,25.40
2022-12-11T04:30:24.660Z,22.90
2022-12-11T04:32:54.388Z,21.40
2022-12-11T04:35:22.166Z,20.80
2022-12-11T04:37:49.566Z,21.35
2022-12-11T04:40:19.010Z,24.63
2022-12-11T04:42:46.134Z,19.83
2022-12-11T04:45:13.507Z,22.35
2022-12-11T04:47:41.693Z,22.93
2022-12-11T04:50:10.948Z,20.20
2022-12-11T04:52:38.010Z,21.60
2022-12-11T04:55:06.401Z,22.75
2022-12-11T04:57:33.495Z,21.50
2022-12-11T05:00:00.620Z,22.67
2022-12-11T05:02:27.875Z,21.90
2022-12-11T05:04:55.019Z,19.67
2022-12-11T05:07:22.041Z,23.85
2022-12-11T05:09:49.087Z,19.95
2022-12-11T05:12:16.139Z,19.27
2022-12-11T05:14:43.512Z,21.50
2022-12-11T05:17:10.577Z,17.95
2022-12-11T05:19:37.661Z,15.60
2022-12-11T05:22:04.741Z,18.50
2022-12-11T05:24:31.847Z,18.13
2022-12-11T05:26:59.034Z,19.70
2022-12-11T05:29:26.118Z,18.55
2022-12-11T05:31:53.199Z,15.57
2022-12-11T05:34:20.261Z,24.40
2022-12-11T05:36:47.347Z,19.70
2022-12-11T05:39:14.587Z,15.88
2022-12-11T05:41:41.829Z,21.85
2022-12-11T05:44:12.634Z,23.02
2022-12-11T05:46:40.515Z,20.60
2022-12-11T05:49:08.036Z,15.90
2022-12-11T05:51:35.126Z,18.38
2022-12-11T05:54:02.773Z,17.10
2022-12-11T05:56:32.490Z,22.48
2022-12-11T05:59:00.775Z,22.23
2022-12-11T06:01:29.623Z,26.10
2022-12-11T06:03:57.317Z,23.00
2022-12-11T06:06:25.157Z,18.02
2022-12-11T06:08:53.822Z,16.90
2022-12-11T06:11:24.201Z,18.60
2022-12-11T06:13:52.413Z,12.57
2022-12-11T06:16:20.199Z,18.77
2022-12-11T06:18:47.902Z,17.63
2022-12-11T06:21:23.751Z,12.70
2022-12-11T06:23:53.424Z,15.15
2022-12-11T06:26:21.010Z,12.77
2022-12-11T06:28:48.727Z,13.82
2022-12-11T06:31:16.406Z,14.45
2022-12-11T06:33:43.558Z,14.88
2022-12-11T06:36:13.638Z,16.73
2022-12-11T06:38:40.743Z,14.40
2022-12-11T06:41:08.518Z,16.98
2022-12-11T06:43:36.802Z,13.90
2022-12-11T06:46:15.105Z,14.55
2022-12-11T06:48:42.883Z,18.67
2022-12-11T06:51:15.412Z,15.97
2022-12-11T06:53:42.631Z,16.25
2022-12-11T06:56:14.559Z,14.48
2022-12-11T06:58:42.671Z,15.98
2022-12-11T07:01:21.292Z,14.18
2022-12-11T07:03:48.989Z,13.90
2022-12-11T07:06:16.596Z,15.05
2022-12-11T07:08:43.680Z,10.18
2022-12-11T07:11:12.890Z,13.10
2022-12-11T07:13:41.945Z,14.30
2022-12-11T07:16:11.267Z,13.77
2022-12-11T07:18:42.734Z,14.65
2022-12-11T07:21:12.957Z,17.75
2022-12-11T07:23:40.643Z,21.05
2022-12-11T07:26:14.022Z,17.38
2022-12-11T07:28:41.320Z,14.80
2022-12-11T07:31:12.989Z,15.48
2022-12-11T07:33:40.807Z,15.00
2022-12-11T07:36:09.478Z,16.15
2022-12-11T07:38:36.930Z,16.15
2022-12-11T07:41:15.580Z,13.77
2022-12-11T07:43:43.274Z,18.52
2022-12-11T07:46:16.115Z,17.10
2022-12-11T07:48:45.355Z,14.95
2022-12-11T07:51:18.271Z,16.52
2022-12-11T07:53:47.188Z,22.97
2022-12-11T07:56:15.591Z,16.27
2022-12-11T07:58:42.786Z,16.63
2022-12-11T08:01:20.057Z,15.38
2022-12-11T08:03:47.689Z,13.60
2022-12-11T08:06:15.311Z,14.97
2022-12-11T08:08:42.510Z,13.68
2022-12-11T08:11:12.389Z,16.20
2022-12-11T08:13:39.965Z,13.73
2022-12-11T08:16:09.020Z,19.13
2022-12-11T08:18:37.079Z,26.07
2022-12-11T08:21:10.165Z,22.80
2022-12-11T08:23:37.385Z,25.13
2022-12-11T08:26:06.450Z,18.08
2022-12-11T08:28:33.608Z,16.08
2022-12-11T08:31:01.256Z,15.23
2022-12-11T08:33:28.362Z,17.02
2022-12-11T08:35:55.392Z,18.38
2022-12-11T08:38:25.626Z,19.98
2022-12-11T08:40:53.044Z,21.95
2022-12-11T08:43:20.230Z,18.67
2022-12-11T08:45:47.339Z,17.05
2022-12-11T08:48:14.503Z,16.00
2022-12-11T08:50:41.799Z,20.33
2022-12-11T08:53:08.847Z,15.15
2022-12-11T08:55:35.899Z,15.10
2022-12-11T08:58:03.257Z,15.02
2022-12-11T09:00:30.285Z,16.13
2022-12-11T09:02:57.353Z,12.80
2022-12-11T09:05:24.430Z,17.10
2022-12-11T09:07:51.541Z,13.27
2022-12-11T09:10:18.859Z,15.75
2022-12-11T09:12:45.940Z,15.48
2022-12-11T09:15:13.374Z,16.75
2022-12-11T09:17:40.670Z,14.68
2022-12-11T09:20:08.258Z,16.03
2022-12-11T09:22:35.333Z,14.93
2022-12-11T09:25:02.504Z,19.05
2022-12-11T09:27:29.565Z,17.77
2022-12-11T09:29:56.664Z,15.77
2022-12-11T09:32:23.737Z,13.87
2022-12-11T09:34:51.911Z,15.73
2022-12-11T09:37:19.031Z,15.20
2022-12-11T09:39:46.079Z,12.65
2022-12-11T09:42:32.836Z,12.18
2022-12-11T09:45:02.418Z,13.83
2022-12-11T09:47:41.295Z,13.73
2022-12-11T09:50:11.433Z,14.48
2022-12-11T09:56:00.905Z,15.45
2022-12-11T09:58:37.295Z,16.40
2022-12-11T10:01:29.758Z,17.65
2022-12-11T10:04:21.204Z,20.38
2022-12-11T10:06:57.234Z,17.15
2022-12-11T10:09:50.378Z,18.15
2022-12-11T10:12:38.324Z,14.73
2022-12-11T10:15:33.731Z,14.05
2022-12-11T10:18:04.872Z,14.43
2022-12-11T10:20:39.516Z,14.30
2022-12-11T10:23:08.850Z,13.80
2022-12-11T10:25:40.636Z,17.57
2022-12-11T10:28:14.235Z,18.27
2022-12-11T10:31:08.729Z,18.45
2022-12-11T10:33:54.976Z,17.85
2022-12-11T10:36:31.454Z,15.73
2022-12-11T10:38:59.219Z,15.40
2022-12-11T10:41:43.570Z,12.90
2022-12-11T10:44:18.182Z,16.67
2022-12-11T10:46:47.139Z,15.80
2022-12-11T10:49:25.140Z,16.00
2022-12-11T10:51:53.170Z,16.37
2022-12-11T10:54:29.234Z,15.02
2022-12-11T10:56:56.495Z,15.48
2022-12-11T10:59:37.317Z,18.85
2022-12-11T11:02:07.595Z,16.05
2022-12-11T11:04:39.153Z,18.37
2022-12-11T11:07:13.828Z,13.82
2022-12-11T11:09:41.408Z,15.20
2022-12-11T11:12:27.171Z,14.05
2022-12-11T11:15:06.052Z,15.73
2022-12-11T11:17:35.394Z,13.77
2022-12-11T11:20:07.456Z,15.68
2022-12-11T11:22:39.289Z,12.55
2022-12-11T11:25:06.723Z,13.15
2022-12-11T11:27:47.755Z,14.82
2022-12-11T11:30:25.096Z,15.60
2022-12-11T11:32:55.575Z,13.55
2022-12-11T11:35:27.387Z,13.85
2022-12-11T11:38:18.635Z,11.68
2022-12-11T11:40:51.364Z,13.98
2022-12-11T11:43:38.980Z,18.07
2022-12-11T11:46:07.914Z,16.05
2022-12-11T11:48:37.827Z,20.30
2022-12-11T11:51:14.696Z,17.20
2022-12-11T11:53:44.850Z,16.67
2022-12-11T11:56:23.824Z,16.57
2022-12-11T11:59:25.117Z,17.38
2022-12-11T12:01:55.127Z,13.07
2022-12-11T12:04:22.695Z,15.50
2022-12-11T12:07:04.952Z,16.60
2022-12-11T12:09:51.633Z,12.87
2022-12-11T12:12:45.024Z,19.80
2022-12-11T12:15:21.787Z,18.67
2022-12-11T12:17:55.849Z,15.98
2022-12-11T12:20:48.868Z,15.93
2022-12-11T12:23:36.625Z,14.97
2022-12-11T12:26:12.306Z,14.32
2022-12-11T12:28:49.110Z,15.90
2022-12-11T12:31:25.258Z,14.07
2022-12-11T12:34:24.354Z,16.48
2022-12-11T12:36:56.299Z,17.97
2022-12-11T12:39:47.861Z,16.33
2022-12-11T12:42:24.185Z,18.90
2022-12-11T12:45:13.003Z,17.10
2022-12-11T12:47:42.289Z,14.18
2022-12-11T12:50:13.750Z,20.57
2022-12-11T12:52:41.352Z,17.52
2022-12-11T12:55:29.025Z,17.80
2022-12-11T12:58:00.272Z,16.67
2022-12-11T13:00:39.182Z,15.30
2022-12-11T13:03:17.515Z,13.50
2022-12-11T13:05:54.648Z,15.25
2022-12-11T13:08:26.931Z,14.75
2022-12-11T13:11:05.527Z,15.77
2022-12-11T13:13:41.770Z,16.15
2022-12-11T13:16:36.383Z,16.13
2022-12-11T13:19:03.989Z,16.73
2022-12-11T13:21:33.831Z,18.17
2022-12-11T13:24:13.165Z,17.77
2022-12-11T13:26:40.382Z,15.20
2022-12-11T13:29:31.599Z,16.17
2022-12-11T13:32:01.971Z,14.23
2022-12-11T13:34:33.335Z,21.95
2022-12-11T13:39:48.319Z,14.68
2022-12-11T13:42:44.777Z,13.17
2022-12-11T13:45:28.478Z,14.60
2022-12-11T13:47:57.286Z,20.17
2022-12-11T13:50:28.543Z,15.23
2022-12-11T13:52:57.659Z,16.65
2022-12-11T13:55:27.496Z,14.17
2022-12-11T13:57:55.166Z,14.45
2022-12-11T14:00:28.456Z,14.13
2022-12-11T14:02:57.698Z,13.77
2022-12-11T14:05:24.960Z,15.43
2022-12-11T14:07:55.258Z,18.10
2022-12-11T14:10:30.756Z,17.17
2022-12-11T14:13:02.763Z,13.98
2022-12-11T14:15:30.667Z,15.68
2022-12-11T14:17:58.424Z,17.20
2022-12-11T14:20:27.968Z,19.30
2022-12-11T14:23:14.017Z,14.95
2022-12-11T14:25:41.122Z,14.43
2022-12-11T14:28:16.895Z,14.43
2022-12-11T14:30:50.323Z,16.02
2022-12-11T14:33:19.510Z,16.77
2022-12-11T14:35:47.465Z,16.42
2022-12-11T14:38:20.466Z,17.05
2022-12-11T14:40:52.009Z,18.48
2022-12-11T14:43:35.438Z,17.77
2022-12-11T14:46:06.752Z,17.93
2022-12-11T14:48:42.168Z,17.05
2022-12-11T14:51:14.985Z,17.98
2022-12-11T14:53:45.379Z,18.17
2022-12-11T14:56:21.840Z,15.95
2022-12-11T14:58:58.527Z,19.63
2022-12-11T15:01:31.631Z,17.75
2022-12-11T15:04:27.596Z,16.98
2022-12-11T15:06:55.792Z,16.83
2022-12-11T15:09:27.952Z,15.82
2022-12-11T15:11:58.455Z,15.53
2022-12-11T15:14:25.994Z,17.48
2022-12-11T15:16:56.435Z,18.02
2022-12-11T15:19:30.762Z,17.55
2022-12-11T15:22:05.712Z,16.73
2022-12-11T15:24:41.748Z,15.20
2022-12-11T15:27:26.275Z,13.38
2022-12-11T15:29:53.479Z,19.50
2022-12-11T15:32:21.762Z,15.75
2022-12-11T15:34:51.977Z,15.48
2022-12-11T15:37:30.015Z,14.87
2022-12-11T15:39:59.175Z,16.13
2022-12-11T15:42:30.783Z,17.27
2022-12-11T15:44:58.274Z,15.65
2022-12-11T15:47:27.451Z,17.20
2022-12-11T15:49:59.919Z,16.13
2022-12-11T15:52:26.994Z,15.73
2022-12-11T15:54:54.351Z,15.68
2022-12-11T15:57:22.932Z,16.83
2022-12-11T15:59:51.529Z,16.83
2022-12-11T16:02:18.672Z,17.40
2022-12-11T16:04:45.776Z,17.95
2022-12-11T16:07:16.700Z,16.25
2022-12-11T16:09:44.915Z,14.75
2022-12-11T16:12:13.697Z,16.13
2022-12-11T16:14:41.659Z,17.03
2022-12-11T16:17:09.859Z,18.75
2022-12-11T16:19:37.227Z,13.32
2022-12-11T16:22:05.478Z,16.63
2022-12-11T16:24:33.248Z,13.63
2022-12-11T16:27:00.373Z,15.47
2022-12-11T16:29:27.708Z,17.75
2022-12-11T16:31:55.251Z,14.85
2022-12-11T16:34:26.350Z,13.43
2022-12-11T16:36:53.680Z,15.23
2022-12-11T16:39:20.721Z,16.87
2022-12-11T16:41:47.820Z,15.85
2022-12-11T16:44:19.547Z,15.52
2022-12-11T16:46:46.895Z,14.63
2022-12-11T16:49:14.501Z,17.95
2022-12-11T16:51:41.934Z,16.83
2022-12-11T16:54:10.369Z,17.42
2022-12-11T16:56:37.994Z,15.43
2022-12-11T16:59:05.576Z,15.07
2022-12-11T17:01:33.122Z,15.93
2022-12-11T17:04:00.442Z,16.37
2022-12-11T17:06:27.609Z,21.35
2022-12-11T17:08:54.917Z,16.65
2022-12-11T17:11:23.253Z,14.45
2022-12-11T17:13:55.181Z,15.13
2022-12-11T17:16:24.797Z,14.47
2022-12-11T17:18:52.753Z,12.40
2022-12-11T17:21:20.876Z,13.43
2022-12-11T17:23:48.518Z,15.98
2022-12-11T17:26:16.466Z,16.77
2022-12-11T17:28:43.783Z,15.83
2022-12-11T17:31:16.164Z,15.20
2022-12-11T17:33:44.692Z,17.40
2022-12-11T17:36:14.639Z,18.58
2022-12-11T17:38:41.886Z,17.02
2022-12-11T17:41:12.157Z,15.47
2022-12-11T17:43:41.815Z,16.95
2022-12-11T17:46:11.628Z,16.13
2022-12-11T17:48:39.382Z,19.92
2022-12-11T17:51:09.472Z,20.65
2022-12-11T17:53:36.796Z,17.07
2022-12-11T17:56:05.927Z,17.40
2022-12-11T17:58:33.953Z,17.77
2022-12-11T18:01:01.293Z,17.63
2022-12-11T18:03:28.491Z,16.80
2022-12-11T18:05:56.809Z,19.13
2022-12-11T18:08:26.297Z,18.38
2022-12-11T18:10:54.374Z,16.90
2022-12-11T18:13:22.222Z,17.67
2022-12-11T18:16:14.078Z,18.23
2022-12-11T18:18:41.299Z,18.53
2022-12-11T18:21:12.600Z,22.27
2022-12-11T18:23:39.686Z,18.60
2022-12-11T18:26:06.774Z,20.27
2022-12-11T18:28:34.084Z,19.63
2022-12-11T18:31:03.069Z,22.50
2022-12-11T18:33:30.843Z,21.13
2022-12-11T18:35:57.940Z,18.80
2022-12-11T18:38:25.084Z,21.65
2022-12-11T18:40:52.157Z,17.73
2022-12-11T18:43:19.339Z,21.37
2022-12-11T18:45:46.638Z,20.63
2022-12-11T18:48:14.560Z,18.48
2022-12-11T18:50:45.391Z,19.70
2022-12-11T18:53:12.813Z,22.90
2022-12-11T18:55:44.407Z,21.00
2022-12-11T18:58:13.079Z,20.77
2022-12-11T19:00:41.481Z,22.10
2022-12-11T19:03:09.887Z,22.90
2022-12-11T19:05:37.781Z,25.98
2022-12-11T19:08:05.032Z,19.47
2022-12-11T19:10:32.082Z,21.90
2022-12-11T19:12:59.206Z,23.27
2022-12-11T19:15:27.515Z,29.10
2022-12-11T19:17:54.577Z,21.00
2022-12-11T19:23:08.833Z,25.67
2022-12-11T19:25:45.281Z,24.10
2022-12-11T19:28:12.379Z,21.63
2022-12-11T19:30:46.584Z,26.83
2022-12-11T19:33:13.785Z,20.60
2022-12-11T19:35:40.867Z,24.02
2022-12-11T19:38:08.428Z,25.30
2022-12-11T19:40:43.188Z,22.60
2022-12-11T19:43:10.806Z,24.52
2022-12-11T19:45:38.126Z,25.83
2022-12-11T19:48:05.970Z,23.38
2022-12-11T19:50:35.445Z,23.77
2022-12-11T19:53:02.768Z,26.35
2022-12-11T19:55:29.888Z,23.05
2022-12-11T19:57:56.915Z,26.57
2022-12-11T20:00:24.658Z,23.67
2022-12-11T20:02:52.069Z,24.95
2022-12-11T20:05:19.206Z,24.40
2022-12-11T20:07:46.379Z,23.30
2022-12-11T20:10:13.477Z,25.83
2022-12-11T20:12:40.684Z,25.42
2022-12-11T20:15:08.161Z,24.02
2022-12-11T20:17:36.666Z,23.95
2022-12-11T20:20:04.007Z,26.67
2022-12-11T20:22:31.081Z,26.60
2022-12-11T20:24:58.638Z,25.27
2022-12-11T20:27:26.250Z,26.15
2022-12-11T20:29:53.295Z,22.77
2022-12-11T20:32:20.515Z,26.63
2022-12-11T20:34:47.720Z,29.03
2022-12-11T20:37:14.759Z,25.20
2022-12-11T20:39:41.787Z,25.35
2022-12-11T20:42:09.738Z,25.67
2022-12-11T20:44:37.000Z,24.13
2022-12-11T20:47:04.183Z,24.33
2022-12-11T20:49:31.360Z,26.00
2022-12-11T20:51:59.724Z,22.42
2022-12-11T20:54:27.022Z,23.77
2022-12-11T20:56:54.188Z,27.40
2022-12-11T20:59:21.279Z,24.90
2022-12-11T21:01:49.312Z,25.88
2022-12-11T21:04:16.423Z,25.33
2022-12-11T21:06:43.807Z,21.13
2022-12-11T21:09:17.749Z,22.90
2022-12-11T21:11:44.938Z,25.00
2022-12-11T21:14:12.120Z,23.83
2022-12-11T21:16:39.371Z,23.92
2022-12-11T21:19:07.056Z,22.27
2022-12-11T21:21:36.793Z,27.02
2022-12-11T21:24:04.039Z,24.37
2022-12-11T21:26:31.102Z,23.77
2022-12-11T21:28:58.261Z,25.77
2022-12-11T21:31:25.682Z,25.42
2022-12-11T21:33:53.595Z,24.65
2022-12-11T21:36:20.721Z,27.53
2022-12-11T21:38:47.759Z,24.80
2022-12-11T21:41:17.813Z,21.02
2022-12-11T21:44:56.566Z,20.80
2022-12-11T21:46:33.374Z,21.95
2022-12-11T21:49:00.469Z,24.43
2022-12-11T21:51:35.928Z,26.05
2022-12-11T21:54:05.700Z,27.90
2022-12-11T21:56:33.238Z,26.10
2022-12-11T21:59:01.515Z,22.80
2022-12-11T22:01:33.496Z,24.97
2022-12-11T22:04:01.442Z,21.52
2022-12-11T22:06:28.586Z,24.67
2022-12-11T22:08:55.803Z,25.80
2022-12-11T22:11:28.392Z,28.05
2022-12-11T22:13:55.717Z,23.90
2022-12-11T22:16:23.016Z,26.50
2022-12-11T22:18:50.134Z,26.25
2022-12-11T22:21:17.862Z,24.55
2022-12-11T22:23:45.051Z,27.35
2022-12-11T22:26:17.660Z,23.93
2022-12-11T22:28:44.752Z,30.30
2022-12-11T22:31:14.274Z,26.33
2022-12-11T22:33:43.490Z,27.98
2022-12-11T22:36:11.343Z,26.48
2022-12-11T22:38:39.276Z,23.17
2022-12-11T22:41:18.974Z,29.90
2022-12-11T22:43:49.224Z,27.88
2022-12-11T22:46:18.225Z,22.45
2022-12-11T22:48:45.463Z,25.65
2022-12-11T22:51:12.848Z,20.00
2022-12-11T22:53:39.954Z,26.13
2022-12-11T22:56:09.015Z,26.00
2022-12-11T22:58:36.133Z,25.88
2022-12-11T23:01:07.589Z,22.20
2022-12-11T23:03:34.662Z,28.40
2022-12-11T23:06:05.529Z,25.13
2022-12-11T23:08:33.157Z,28.58
2022-12-11T23:11:00.338Z,25.98
2022-12-11T23:13:27.446Z,22.88
2022-12-11T23:15:54.513Z,25.30
2022-12-11T23:18:21.602Z,26.70
2022-12-11T23:20:49.300Z,27.85
2022-12-11T23:23:16.356Z,28.80
2022-12-11T23:25:43.638Z,26.63
2022-12-11T23:28:10.705Z,29.80
2022-12-11T23:30:38.007Z,23.55
2022-12-11T23:33:06.556Z,26.33
2022-12-11T23:35:33.821Z,29.58
2022-12-11T23:38:01.113Z,22.88
2022-12-11T23:40:28.288Z,27.53
2022-12-11T23:42:55.336Z,29.88
2022-12-11T23:45:22.386Z,23.20
2022-12-11T23:47:49.527Z,27.52
2022-12-11T23:50:16.584Z,25.27
2022-12-11T23:52:43.671Z,25.53
2022-12-11T23:55:11.268Z,26.25
2022-12-11T23:57:38.597Z,30.63
